Time;durP1;ratioP1;P1;durP2;ratioP2;P2;SDS_P1;SDS_P2;PMS_P1;PMS_P2;Temp;Humidity;BMP_temperature;BMP_pressure;BME280_temperature;BME280_humidity;BME280_pressure;Samples;Min_cycle;Max_cycle;Signal;HPM_P1;HPM_P2
2023/12/02 00:02:17;;;;;;;24.07;15.43;;;;;;;-0.26;100.00;151305.50;4988665;28;20462;-83
2023/12/02 00:04:44;;;;;;;21.07;12.67;;;;;;;-0.28;100.00;151300.41;4991194;28;20513;-83
2023/12/02 00:07:11;;;;;;;28.30;14.27;;;;;;;-0.29;100.00;151296.56;4988254;28;20450;-83
2023/12/02 00:09:37;;;;;;;22.87;13.53;;;;;;;-0.27;100.00;151301.69;4989410;28;20996;-83
2023/12/02 00:12:04;;;;;;;26.93;14.47;;;;;;;-0.31;100.00;151291.41;4988023;28;21025;-83
2023/12/02 00:14:31;;;;;;;24.90;13.60;;;;;;;-0.31;100.00;151291.41;4990710;28;20469;-83
2023/12/02 00:16:59;;;;;;;27.10;15.00;;;;;;;-0.31;100.00;151292.69;4988086;28;21035;-82
2023/12/02 00:19:25;;;;;;;25.20;14.90;;;;;;;-0.35;100.00;151282.44;4989640;28;20836;-82
2023/12/02 00:21:52;;;;;;;26.97;14.80;;;;;;;-0.34;100.00;151284.97;4990340;28;20449;-82
2023/12/02 00:24:18;;;;;;;26.83;14.20;;;;;;;-0.35;100.00;151281.16;4998609;28;20441;-82
2023/12/02 00:26:45;;;;;;;24.80;14.90;;;;;;;-0.35;100.00;151282.44;4990480;28;20466;-82
2023/12/02 00:29:12;;;;;;;24.80;14.90;;;;;;;-0.37;100.00;151277.28;4991287;28;20465;-82
2023/12/02 00:31:38;;;;;;;25.37;15.47;;;;;;;-0.37;100.00;151277.28;4991550;28;20464;-82
2023/12/02 00:34:06;;;;;;;27.80;14.30;;;;;;;-0.39;100.00;151272.16;4989613;28;20989;-82
2023/12/02 00:36:33;;;;;;;23.63;13.70;;;;;;;-0.38;100.00;151273.44;4990763;28;20797;-82
2023/12/02 00:38:59;;;;;;;22.40;13.90;;;;;;;-0.38;100.00;151274.75;4985353;28;20453;-82
2023/12/02 00:41:26;;;;;;;23.80;14.00;;;;;;;-0.35;100.00;151281.16;4989637;28;20500;-82
2023/12/02 00:43:52;;;;;;;22.10;12.93;;;;;;;-0.39;100.00;151272.16;4968574;28;20485;-82
2023/12/02 00:46:19;;;;;;;26.03;13.90;;;;;;;-0.39;100.00;151272.16;4982917;28;21071;-82
2023/12/02 00:48:45;;;;;;;24.63;15.00;;;;;;;-0.36;100.00;151279.88;4991512;28;20460;-82
2023/12/02 00:51:13;;;;;;;27.83;14.47;;;;;;;-0.42;100.00;151263.16;4988367;28;20453;-82
2023/12/02 00:53:39;;;;;;;24.03;14.10;;;;;;;-0.42;100.00;151264.47;4986182;28;20473;-82
2023/12/02 00:56:07;;;;;;;23.67;14.80;;;;;;;-0.41;100.00;151267.03;4972463;28;20489;-82
2023/12/02 00:58:33;;;;;;;19.10;12.40;;;;;;;-0.43;100.00;151261.94;4973323;28;20450;-82
2023/12/02 01:01:00;;;;;;;27.00;15.07;;;;;;;-0.41;100.00;151267.03;4976178;28;20519;-82
2023/12/02 01:03:26;;;;;;;23.53;14.00;;;;;;;-0.42;100.00;151264.47;4976939;28;20526;-82
2023/12/02 01:05:53;;;;;;;29.37;15.37;;;;;;;-0.41;100.00;151267.03;4971061;28;20947;-82
2023/12/02 01:08:21;;;;;;;26.97;15.00;;;;;;;-0.41;100.00;151267.03;4959198;28;20438;-82
2023/12/02 01:10:47;;;;;;;26.73;15.23;;;;;;;-0.39;100.00;151272.16;4971918;28;20807;-82
2023/12/02 01:13:14;;;;;;;25.73;15.17;;;;;;;-0.43;100.00;151261.94;4979540;28;20449;-82
2023/12/02 01:15:40;;;;;;;24.17;14.90;;;;;;;-0.45;100.00;151256.75;4976153;28;20486;-82
2023/12/02 01:18:07;;;;;;;26.63;14.60;;;;;;;-0.45;100.00;151256.75;4976163;28;20509;-82
2023/12/02 01:20:33;;;;;;;23.70;14.00;;;;;;;-0.46;100.00;151254.22;4976073;28;20461;-82
2023/12/02 01:23:00;;;;;;;30.30;16.03;;;;;;;-0.47;100.00;151251.63;4978016;28;20458;-82
2023/12/02 01:25:28;;;;;;;21.50;13.30;;;;;;;-0.47;100.00;151251.63;4969573;28;20500;-82
2023/12/02 01:27:54;;;;;;;22.90;13.93;;;;;;;-0.46;100.00;151254.22;4979415;28;20838;-83
2023/12/02 01:30:21;;;;;;;30.07;14.97;;;;;;;-0.46;100.00;151252.94;4974673;28;20516;-83
2023/12/02 01:32:47;;;;;;;23.17;13.67;;;;;;;-0.45;100.00;151255.50;4978984;28;20454;-82
2023/12/02 01:35:14;;;;;;;22.73;14.60;;;;;;;-0.43;100.00;151261.94;4978147;28;20470;-82
2023/12/02 01:37:40;;;;;;;27.60;14.33;;;;;;;-0.47;100.00;151251.63;4973652;28;20463;-82
2023/12/02 01:40:08;;;;;;;23.83;13.20;;;;;;;-0.47;100.00;151251.63;4974103;28;20453;-82
2023/12/02 01:42:36;;;;;;;27.33;15.50;;;;;;;-0.54;100.00;151233.69;4973693;28;20451;-83
2023/12/02 01:45:03;;;;;;;25.57;13.50;;;;;;;-0.56;100.00;151228.59;4973638;28;20443;-82
2023/12/02 01:47:29;;;;;;;24.70;13.80;;;;;;;-0.62;100.00;151214.47;4977997;28;20446;-82
2023/12/02 01:49:57;;;;;;;33.23;15.43;;;;;;;-0.63;100.00;151211.88;4973909;28;20508;-82
2023/12/02 01:52:24;;;;;;;24.80;14.07;;;;;;;-0.63;100.00;151210.59;4972122;28;21029;-82
2023/12/02 01:54:50;;;;;;;24.70;14.17;;;;;;;-0.63;100.00;151211.88;4980578;28;20485;-82
2023/12/02 01:57:17;;;;;;;26.27;14.03;;;;;;;-0.62;100.00;151213.19;4971827;28;20470;-82
2023/12/02 01:59:45;;;;;;;27.53;14.67;;;;;;;-0.62;100.00;151213.19;4982006;28;20451;-82
2023/12/02 02:02:12;;;;;;;25.90;15.30;;;;;;;-0.62;100.00;151213.19;4983209;28;21008;-82
2023/12/02 02:04:39;;;;;;;24.40;13.20;;;;;;;-0.64;100.00;151208.06;4968018;28;20454;-82
2023/12/02 02:07:05;;;;;;;29.20;16.37;;;;;;;-0.67;100.00;151200.34;4972864;28;20462;-81
2023/12/02 02:09:34;;;;;;;27.37;15.70;;;;;;;-0.68;100.00;151199.06;4972223;28;20819;-82
2023/12/02 02:12:01;;;;;;;27.60;15.60;;;;;;;-0.68;100.00;151197.78;4971042;28;20532;-81
2023/12/02 02:14:28;;;;;;;24.00;13.90;;;;;;;-0.67;100.00;151200.34;4970399;28;20481;-82
2023/12/02 02:16:55;;;;;;;29.03;15.10;;;;;;;-0.67;100.00;151201.66;4969784;28;20973;-82
2023/12/02 02:19:22;;;;;;;28.13;14.87;;;;;;;-0.65;100.00;151205.47;4969327;28;20655;-82
2023/12/02 02:21:52;;;;;;;23.03;14.27;;;;;;;-0.69;100.00;151196.47;4980413;28;20461;-82
2023/12/02 02:24:19;;;;;;;28.33;14.67;;;;;;;-0.65;100.00;151205.47;4973385;28;20512;-81
2023/12/02 02:26:46;;;;;;;24.30;14.57;;;;;;;-0.64;100.00;151209.28;4979323;28;20533;-82
2023/12/02 02:29:12;;;;;;;23.40;14.17;;;;;;;-0.68;100.00;151197.78;4972597;28;20454;-81
2023/12/02 02:31:39;;;;;;;24.17;13.77;;;;;;;-0.68;100.00;151199.06;4982830;28;20973;-82
2023/12/02 02:34:05;;;;;;;25.77;14.87;;;;;;;-0.71;100.00;151190.06;4976697;28;20439;-82
2023/12/02 02:36:32;;;;;;;26.67;14.00;;;;;;;-0.72;100.00;151188.81;4971159;28;20478;-82
2023/12/02 02:39:00;;;;;;;25.70;14.17;;;;;;;-0.70;100.00;151192.66;4974046;28;20484;-81
2023/12/02 02:41:26;;;;;;;26.33;15.00;;;;;;;-0.70;100.00;151193.94;4975458;28;20485;-82
2023/12/02 02:43:53;;;;;;;21.87;13.37;;;;;;;-0.76;100.00;151178.53;4960545;28;20458;-83
2023/12/02 02:46:20;;;;;;;24.07;11.50;;;;;;;-0.80;100.00;151168.31;4976984;28;20459;-82
2023/12/02 02:48:46;;;;;;;20.87;13.30;;;;;;;-0.78;100.00;151173.44;4976100;28;20752;-83
2023/12/02 02:51:13;;;;;;;25.07;12.70;;;;;;;-0.76;100.00;151177.25;4987746;28;20452;-82
2023/12/02 02:53:39;;;;;;;24.40;13.03;;;;;;;-0.79;100.00;151170.84;4976980;28;20477;-82
2023/12/02 02:56:09;;;;;;;24.20;14.47;;;;;;;-0.79;100.00;151169.56;4974530;28;20477;-82
2023/12/02 02:58:49;;;;;;;22.03;13.27;;;;;;;-0.81;100.00;151164.44;4976114;28;20450;-82
2023/12/02 03:01:16;;;;;;;20.20;12.03;;;;;;;-0.82;100.00;151163.16;4971684;28;20507;-83
2023/12/02 03:03:43;;;;;;;30.27;14.77;;;;;;;-0.84;100.00;151156.72;4983200;28;20541;-83
2023/12/02 03:06:10;;;;;;;28.67;13.80;;;;;;;-0.82;100.00;151161.91;4957630;28;20491;-82
2023/12/02 03:08:36;;;;;;;23.80;14.00;;;;;;;-0.81;100.00;151165.72;4976519;28;20449;-83
2023/12/02 03:11:03;;;;;;;25.10;14.70;;;;;;;-0.84;100.00;151158.03;4959723;28;20528;-83
2023/12/02 03:13:31;;;;;;;22.47;13.60;;;;;;;-0.83;100.00;151159.31;4977225;28;20434;-82
2023/12/02 03:15:58;;;;;;;24.43;12.40;;;;;;;-0.84;100.00;151156.72;4978532;28;20482;-83
2023/12/02 03:18:24;;;;;;;24.67;13.47;;;;;;;-0.84;100.00;151156.72;4976944;28;20938;-82
2023/12/02 03:20:51;;;;;;;25.67;12.60;;;;;;;-0.83;100.00;151159.31;4962081;28;20457;-82
2023/12/02 03:23:17;;;;;;;21.53;11.97;;;;;;;-0.82;100.00;151163.16;4984652;28;20449;-83
2023/12/02 03:25:44;;;;;;;20.83;13.13;;;;;;;-0.81;100.00;151164.44;4984196;28;20861;-83
2023/12/02 03:28:12;;;;;;;26.73;13.57;;;;;;;-0.84;100.00;151158.03;4977388;28;20446;-82
2023/12/02 03:30:40;;;;;;;21.17;12.33;;;;;;;-0.83;100.00;151159.31;4977518;28;20545;-82
2023/12/02 03:33:07;;;;;;;20.93;11.67;;;;;;;-0.88;100.00;151146.50;4977364;28;20972;-83
2023/12/02 03:35:32;;;;;;;23.40;12.10;;;;;;;-0.87;100.00;151149.03;4980762;28;20486;-82
2023/12/02 03:37:59;;;;;;;23.10;11.33;;;;;;;-0.86;100.00;151151.63;4976705;28;20861;-82
2023/12/02 03:40:25;;;;;;;25.10;12.07;;;;;;;-0.89;100.00;151143.91;4983492;28;20737;-82
2023/12/02 03:42:52;;;;;;;18.53;11.60;;;;;;;-0.91;100.00;151138.78;4977534;28;20450;-83
2023/12/02 03:45:18;;;;;;;19.97;10.80;;;;;;;-0.94;100.00;151131.09;4983914;28;20438;-82
2023/12/02 03:47:46;;;;;;;25.00;11.73;;;;;;;-0.93;100.00;151134.97;4973625;28;20972;-82
2023/12/02 03:50:13;;;;;;;22.77;12.33;;;;;;;-0.92;100.00;151137.50;4975373;28;20453;-83
2023/12/02 03:52:40;;;;;;;21.57;12.20;;;;;;;-0.90;100.00;151141.38;4960955;28;20988;-82
2023/12/02 03:55:08;;;;;;;19.33;12.00;;;;;;;-0.91;100.00;151140.09;4976983;28;20478;-82
2023/12/02 03:57:34;;;;;;;19.53;11.97;;;;;;;-0.86;100.00;151152.91;4990069;28;20470;-83
2023/12/02 04:00:01;;;;;;;18.73;11.80;;;;;;;-0.82;100.00;151163.16;4992004;28;20434;-83
2023/12/02 04:02:27;;;;;;;20.97;12.40;;;;;;;-0.82;100.00;151163.16;4989517;28;20464;-83
2023/12/02 04:04:55;;;;;;;23.77;13.43;;;;;;;-0.86;100.00;151151.63;4989028;28;20453;-83
2023/12/02 04:07:22;;;;;;;20.30;10.50;;;;;;;-0.90;100.00;151142.63;4990189;28;20809;-83
2023/12/02 04:09:48;;;;;;;17.47;11.13;;;;;;;-0.91;100.00;151138.78;4988812;28;20984;-82
2023/12/02 04:12:15;;;;;;;20.60;11.67;;;;;;;-0.88;100.00;151146.50;4990502;28;20450;-83
2023/12/02 04:14:41;;;;;;;19.17;10.83;;;;;;;-0.85;100.00;151155.44;4988539;28;20453;-83
2023/12/02 04:17:09;;;;;;;24.30;14.23;;;;;;;-0.85;100.00;151154.19;4988605;28;20478;-83
2023/12/02 04:19:35;;;;;;;18.53;10.97;;;;;;;-0.89;100.00;151143.91;4987162;28;21088;-83
2023/12/02 04:22:03;;;;;;;21.90;12.33;;;;;;;-0.92;100.00;151136.22;4988559;28;20461;-83
2023/12/02 04:24:30;;;;;;;19.63;11.73;;;;;;;-0.96;100.00;151127.28;4987945;28;20449;-83
2023/12/02 04:26:56;;;;;;;19.80;11.67;;;;;;;-0.95;100.00;151129.81;4971667;28;20454;-83
2023/12/02 04:29:23;;;;;;;22.80;11.30;;;;;;;-0.93;100.00;151133.69;4988866;28;20465;-83
2023/12/02 04:31:49;;;;;;;19.07;10.70;;;;;;;-0.96;100.00;151125.97;4989509;28;20453;-83
2023/12/02 04:34:16;;;;;;;20.90;11.87;;;;;;;-0.99;100.00;151118.28;4991090;28;20556;-83
2023/12/02 04:36:43;;;;;;;18.20;10.93;;;;;;;-0.97;100.00;151123.41;4971571;28;20469;-83
2023/12/02 04:39:11;;;;;;;15.00;10.13;;;;;;;-0.97;100.00;151123.41;4986894;28;20543;-83
2023/12/02 04:41:38;;;;;;;19.63;11.90;;;;;;;-1.00;100.00;151115.69;4989115;28;20433;-83
2023/12/02 04:44:05;;;;;;;19.20;10.50;;;;;;;-0.95;100.00;151128.50;4989302;28;20445;-84
2023/12/02 04:46:31;;;;;;;16.50;9.80;;;;;;;-0.94;100.00;151131.09;4990789;28;20504;-83
2023/12/02 04:48:58;;;;;;;16.87;10.53;;;;;;;-0.93;100.00;151134.97;4983470;28;20572;-83
2023/12/02 04:51:24;;;;;;;18.50;11.50;;;;;;;-0.94;100.00;151132.38;4986111;28;20814;-83
2023/12/02 04:53:51;;;;;;;18.10;11.57;;;;;;;-0.98;100.00;151122.09;4988555;28;20484;-84
2023/12/02 04:56:19;;;;;;;19.13;10.50;;;;;;;-0.94;100.00;151131.09;4980154;28;20608;-84
2023/12/02 04:58:45;;;;;;;15.77;9.97;;;;;;;-0.97;100.00;151124.69;4983635;28;20457;-84
2023/12/02 05:01:12;;;;;;;14.30;9.77;;;;;;;-0.97;100.00;151124.69;4987429;28;20468;-84
2023/12/02 05:03:38;;;;;;;13.80;9.40;;;;;;;-0.97;100.00;151123.41;4987112;28;20438;-84
2023/12/02 05:06:08;;;;;;;17.23;10.77;;;;;;;-0.96;100.00;151125.97;4985218;28;20460;-84
2023/12/02 05:08:34;;;;;;;18.87;10.30;;;;;;;-1.00;100.00;151115.69;4985071;28;20465;-83
2023/12/02 05:11:01;;;;;;;17.90;10.60;;;;;;;-1.02;100.00;151110.59;4981052;28;20481;-84
2023/12/02 05:13:28;;;;;;;16.50;8.17;;;;;;;-1.02;100.00;151110.59;4992716;28;20445;-83
2023/12/02 05:15:55;;;;;;;16.27;9.40;;;;;;;-1.08;100.00;151095.19;4986253;28;20956;-84
2023/12/02 05:18:21;;;;;;;21.40;10.73;;;;;;;-1.08;100.00;151096.47;4987513;28;20461;-84
2023/12/02 05:20:49;;;;;;;18.70;11.23;;;;;;;-1.06;100.00;151100.34;4987900;28;20458;-84
2023/12/02 05:23:15;;;;;;;15.60;10.37;;;;;;;-1.08;100.00;151095.19;4992304;28;20440;-84
2023/12/02 05:25:42;;;;;;;14.63;9.50;;;;;;;-1.08;100.00;151095.19;4993506;28;20502;-84
2023/12/02 05:28:09;;;;;;;15.87;8.90;;;;;;;-1.13;100.00;151082.38;4985256;28;20477;-84
2023/12/02 05:30:38;;;;;;;17.60;10.93;;;;;;;-1.11;100.00;151088.78;4988854;28;20540;-85
2023/12/02 05:33:05;;;;;;;16.07;8.70;;;;;;;-1.14;100.00;151079.84;4980276;28;20429;-84
2023/12/02 05:35:32;;;;;;;15.33;9.97;;;;;;;-1.15;100.00;151077.25;4988377;28;20461;-84
2023/12/02 05:37:59;;;;;;;16.57;10.53;;;;;;;-1.16;100.00;151074.66;4989551;28;20477;-84
2023/12/02 05:40:25;;;;;;;18.00;10.43;;;;;;;-1.22;100.00;151061.88;4990106;28;20461;-84
2023/12/02 05:42:52;;;;;;;14.90;9.90;;;;;;;-1.19;100.00;151067.03;4989929;28;20448;-85
2023/12/02 05:45:18;;;;;;;19.50;9.90;;;;;;;-1.22;100.00;151061.88;4983748;28;20462;-84
2023/12/02 05:47:46;;;;;;;17.23;10.90;;;;;;;-1.22;100.00;151061.88;4990942;28;20441;-84
2023/12/02 05:50:13;;;;;;;13.37;9.33;;;;;;;-1.23;100.00;151059.34;4988340;28;20448;-85
2023/12/02 05:52:39;;;;;;;18.10;11.53;;;;;;;-1.22;100.00;151061.88;4987895;28;20446;-85
2023/12/02 05:55:06;;;;;;;16.00;9.20;;;;;;;-1.26;100.00;151051.63;4986955;28;20490;-84
2023/12/02 05:57:33;;;;;;;18.23;10.17;;;;;;;-1.26;100.00;151051.63;4988962;28;20482;-85
2023/12/02 05:59:59;;;;;;;16.00;9.10;;;;;;;-1.25;100.00;151052.91;4984468;28;20466;-84
2023/12/02 06:02:26;;;;;;;13.90;8.80;;;;;;;-1.31;100.00;151038.81;4985214;28;20545;-84
2023/12/02 06:04:54;;;;;;;11.93;8.00;;;;;;;-1.35;100.00;151028.53;4990697;28;20453;-83
2023/12/02 06:07:20;;;;;;;14.00;8.90;;;;;;;-1.38;100.00;151020.84;4992448;28;20456;-83
2023/12/02 06:09:47;;;;;;;18.93;10.97;;;;;;;-1.36;100.00;151026.00;4994780;28;20448;-83
2023/12/02 06:12:13;;;;;;;12.60;8.83;;;;;;;-1.36;100.00;151026.00;4992334;28;20507;-84
2023/12/02 06:14:40;;;;;;;15.70;9.27;;;;;;;-1.33;100.00;151033.69;4994786;28;20453;-84
2023/12/02 06:17:07;;;;;;;15.67;10.13;;;;;;;-1.36;100.00;151026.00;4988266;28;20473;-84
2023/12/02 06:19:33;;;;;;;15.93;9.27;;;;;;;-1.43;100.00;151008.03;4982434;28;20454;-84
2023/12/02 06:22:01;;;;;;;14.17;8.70;;;;;;;-1.45;100.00;151002.91;4987163;28;20449;-84
2023/12/02 06:24:28;;;;;;;11.80;7.03;;;;;;;-1.49;100.00;150992.69;4993625;28;20462;-84
2023/12/02 06:26:55;;;;;;;14.60;9.30;;;;;;;-1.54;100.00;150979.88;4988313;28;20869;-84
2023/12/02 06:29:22;;;;;;;19.90;9.57;;;;;;;-1.52;100.00;150985.00;4988476;28;20466;-84
2023/12/02 06:31:49;;;;;;;14.37;8.77;;;;;;;-1.46;100.00;150999.09;4988253;28;20524;-83
2023/12/02 06:34:16;;;;;;;16.97;9.80;;;;;;;-1.52;100.00;150985.00;4993110;28;20458;-84
2023/12/02 06:36:44;;;;;;;16.80;8.27;;;;;;;-1.54;100.00;150979.88;4995170;28;20473;-84
2023/12/02 06:39:12;;;;;;;12.37;8.30;;;;;;;-1.56;100.00;150974.72;4992209;28;20449;-84
2023/12/02 06:41:41;;;;;;;18.10;9.60;;;;;;;-1.57;100.00;150972.19;4969271;28;21058;-84
2023/12/02 06:44:07;;;;;;;12.60;8.17;;;;;;;-1.58;100.00;150968.31;4998978;28;20551;-84
2023/12/02 06:46:34;;;;;;;12.07;9.00;;;;;;;-1.57;100.00;150970.91;4994226;28;20512;-85
2023/12/02 06:49:01;;;;;;;16.33;9.37;;;;;;;-1.56;100.00;150973.47;4996629;28;20494;-86
2023/12/02 06:51:29;;;;;;;15.70;9.70;;;;;;;-1.56;100.00;150974.72;4993258;28;20462;-85
2023/12/02 06:54:40;;;;;;;15.30;9.20;;;;;;;-1.55;100.00;150977.28;4980234;28;20841;-87
2023/12/02 06:57:14;;;;;;;15.03;9.27;;;;;;;-1.47;100.00;150996.50;4997066;28;20465;-86
2023/12/02 06:59:41;;;;;;;15.50;8.77;;;;;;;-1.45;100.00;151002.91;4992814;28;20445;-86
2023/12/02 07:02:07;;;;;;;13.97;9.40;;;;;;;-1.41;100.00;151013.19;4994621;28;20544;-87
2023/12/02 07:04:34;;;;;;;19.53;10.67;;;;;;;-1.41;100.00;151013.19;4964632;28;20820;-89
2023/12/02 07:07:01;;;;;;;18.77;11.53;;;;;;;-1.37;100.00;151023.44;4992371;28;20473;-85
2023/12/02 07:09:27;;;;;;;18.10;11.07;;;;;;;-1.37;100.00;151023.44;4987067;28;20804;-85
2023/12/02 07:11:54;;;;;;;18.17;11.90;;;;;;;-1.36;100.00;151026.00;4993196;28;20507;-88
2023/12/02 07:14:22;;;;;;;22.60;12.07;;;;;;;-1.37;100.00;151023.44;4997156;28;20457;-87
2023/12/02 07:16:48;;;;;;;14.37;10.60;;;;;;;-1.34;100.00;151031.13;4991817;28;20445;-87
2023/12/02 07:19:15;;;;;;;19.57;11.40;;;;;;;-1.40;100.00;151015.72;4992178;28;20460;-87
2023/12/02 07:21:41;;;;;;;15.00;9.70;;;;;;;-1.35;100.00;151028.53;4995105;28;20461;-88
2023/12/02 07:24:09;;;;;;;14.83;9.63;;;;;;;-1.42;100.00;151009.31;4997530;28;20445;-88
2023/12/02 07:26:35;;;;;;;19.60;11.00;;;;;;;-1.45;100.00;151002.91;4996265;28;20568;-88
2023/12/02 07:29:02;;;;;;;19.83;11.43;;;;;;;-1.51;100.00;150987.53;4986384;28;20458;-88
2023/12/02 07:31:30;;;;;;;15.70;9.33;;;;;;;-1.57;100.00;150972.19;4989668;28;20856;-88
2023/12/02 07:33:56;;;;;;;17.40;10.87;;;;;;;-1.58;100.00;150968.31;4990763;28;21067;-88
2023/12/02 07:36:23;;;;;;;14.83;9.90;;;;;;;-1.62;100.00;150958.09;4997301;28;20468;-88
2023/12/02 07:38:49;;;;;;;14.43;8.87;;;;;;;-1.64;100.00;150952.97;4983158;28;21057;-88
2023/12/02 07:41:16;;;;;;;16.07;9.50;;;;;;;-1.71;100.00;150936.28;4995272;28;20458;-88
2023/12/02 07:43:42;;;;;;;16.60;9.20;;;;;;;-1.69;100.00;150941.41;4990762;28;20465;-89
2023/12/02 07:46:09;;;;;;;18.30;10.03;;;;;;;-1.64;100.00;150952.97;4995373;28;20881;-88
2023/12/02 07:48:37;;;;;;;14.87;9.37;;;;;;;-1.65;100.00;150950.41;4999128;28;20988;-89
2023/12/02 07:51:04;;;;;;;17.53;9.80;;;;;;;-1.62;100.00;150959.38;4996025;28;20490;-89
2023/12/02 07:53:30;;;;;;;14.10;9.13;;;;;;;-1.67;100.00;150946.56;4997932;28;20848;-88
2023/12/02 07:55:56;;;;;;;18.47;9.70;;;;;;;-1.73;100.00;150931.19;4996977;28;20449;-89
2023/12/02 07:58:23;;;;;;;18.67;10.10;;;;;;;-1.72;100.00;150932.47;4999139;28;20223;-88
2023/12/02 08:00:49;;;;;;;17.83;10.80;;;;;;;-1.68;100.00;150943.97;4998533;28;20921;-88
2023/12/02 08:03:16;;;;;;;17.50;10.00;;;;;;;-1.67;100.00;150945.28;4998439;28;21039;-89
2023/12/02 08:05:44;;;;;;;16.80;10.30;;;;;;;-1.69;100.00;150941.41;4997134;28;20887;-90
2023/12/02 08:08:11;;;;;;;17.13;9.50;;;;;;;-1.68;100.00;150943.97;5000132;28;20592;-88
2023/12/02 08:10:37;;;;;;;16.67;10.40;;;;;;;-1.72;100.00;150933.72;4997736;28;20459;-89
2023/12/02 08:13:04;;;;;;;16.10;9.60;;;;;;;-1.67;100.00;150945.28;4997604;28;20460;-89
2023/12/02 08:15:30;;;;;;;16.97;9.83;;;;;;;-1.67;100.00;150946.56;4995188;28;20458;-89
2023/12/02 08:17:57;;;;;;;16.00;10.40;;;;;;;-1.67;100.00;150946.56;4996955;28;20462;-90
2023/12/02 08:20:23;;;;;;;16.70;10.80;;;;;;;-1.69;100.00;150941.41;4994607;28;20966;-89
2023/12/02 08:22:51;;;;;;;15.50;10.00;;;;;;;-1.67;100.00;150946.56;4999395;28;20461;-89
2023/12/02 08:25:18;;;;;;;15.50;10.17;;;;;;;-1.70;100.00;150938.88;4996007;28;20983;-89
2023/12/02 08:27:45;;;;;;;18.47;10.40;;;;;;;-1.78;100.00;150918.38;4995191;28;20489;-88
2023/12/02 08:30:12;;;;;;;17.43;10.10;;;;;;;-1.82;100.00;150908.09;4995038;28;20453;-89
2023/12/02 08:32:39;;;;;;;18.30;9.87;;;;;;;-1.86;100.00;150897.88;4991028;28;20474;-89
2023/12/02 08:35:06;;;;;;;15.40;10.67;;;;;;;-1.76;100.00;150922.19;4990380;28;20528;-88
2023/12/02 08:37:33;;;;;;;18.10;10.57;;;;;;;-1.76;100.00;150923.47;4998206;28;20948;-89
2023/12/02 08:40:01;;;;;;;19.63;9.97;;;;;;;-1.77;100.00;150920.91;4994020;28;20457;-89
2023/12/02 08:42:28;;;;;;;14.57;9.60;;;;;;;-1.79;100.00;150915.78;4996640;28;20457;-89
2023/12/02 08:44:54;;;;;;;16.57;11.20;;;;;;;-1.79;100.00;150915.78;4969105;28;20473;-89
2023/12/02 08:47:21;;;;;;;16.30;10.97;;;;;;;-1.76;100.00;150923.47;4977358;28;20528;-89
2023/12/02 08:49:48;;;;;;;20.93;13.70;;;;;;;-1.79;100.00;150914.50;4995407;28;20468;-88
2023/12/02 08:52:14;;;;;;;19.23;11.10;;;;;;;-1.83;100.00;150905.56;4989216;28;20460;-89
2023/12/02 08:54:41;;;;;;;17.23;11.47;;;;;;;-1.85;100.00;150900.41;4992917;28;20478;-89
2023/12/02 08:57:09;;;;;;;21.67;11.97;;;;;;;-1.87;100.00;150895.28;4994063;28;20448;-89
2023/12/02 08:59:35;;;;;;;19.20;10.57;;;;;;;-1.84;100.00;150902.97;4989598;28;20989;-89
2023/12/02 09:02:05;;;;;;;21.37;11.77;;;;;;;-1.87;100.00;150895.28;4990539;28;20464;-89
2023/12/02 09:04:32;;;;;;;17.97;11.10;;;;;;;-1.89;100.00;150890.19;4988318;28;20449;-89
2023/12/02 09:06:58;;;;;;;17.63;10.80;;;;;;;-1.83;100.00;150904.28;4992336;28;20497;-89
2023/12/02 09:09:25;;;;;;;14.70;9.20;;;;;;;-1.85;100.00;150900.41;4996857;28;20457;-89
2023/12/02 09:11:51;;;;;;;16.97;8.87;;;;;;;-1.90;100.00;150888.88;4995046;28;20482;-89
2023/12/02 09:14:19;;;;;;;14.40;9.33;;;;;;;-1.93;100.00;150879.91;4995284;28;20816;-88
2023/12/02 09:16:47;;;;;;;17.47;10.27;;;;;;;-1.93;100.00;150881.19;4994610;28;20458;-88
2023/12/02 09:19:51;;;;;;;20.87;12.83;;;;;;;-1.88;100.00;150894.00;4994240;28;20461;-88
2023/12/02 09:22:46;;;;;;;18.90;11.03;;;;;;;-1.85;100.00;150900.41;4995569;28;20459;-88
2023/12/02 09:25:22;;;;;;;17.87;10.77;;;;;;;-1.82;100.00;150908.09;4975702;28;20462;-89
2023/12/02 09:28:11;;;;;;;15.67;10.40;;;;;;;-1.81;100.00;150909.38;4996202;28;21018;-88
2023/12/02 09:30:41;;;;;;;16.80;11.03;;;;;;;-1.76;100.00;150923.47;4997286;28;20448;-87
2023/12/02 09:33:08;;;;;;;19.00;11.47;;;;;;;-1.85;100.00;150901.69;4966497;28;20461;-88
2023/12/02 09:35:35;;;;;;;19.07;9.50;;;;;;;-1.84;100.00;150902.97;4980757;28;20467;-88
2023/12/02 09:38:02;;;;;;;15.03;9.70;;;;;;;-1.85;100.00;150900.41;4992893;28;20453;-89
2023/12/02 09:40:37;;;;;;;18.47;10.30;;;;;;;-1.92;100.00;150882.50;4990124;28;20520;-88
2023/12/02 09:43:17;;;;;;;16.57;9.80;;;;;;;-1.87;100.00;150895.28;4996345;28;20953;-88
2023/12/02 09:45:52;;;;;;;17.17;10.57;;;;;;;-1.78;100.00;150918.38;4995820;28;20453;-88
2023/12/02 09:48:21;;;;;;;16.30;10.50;;;;;;;-1.77;100.00;150919.66;4997996;28;20492;-88
2023/12/02 09:50:59;;;;;;;15.23;9.47;;;;;;;-1.75;100.00;150924.78;4964263;28;20842;-88
2023/12/02 09:53:34;;;;;;;16.37;9.03;;;;;;;-1.75;100.00;150926.06;4995489;28;20468;-88
2023/12/02 09:56:03;;;;;;;13.93;9.20;;;;;;;-1.72;100.00;150932.47;4978497;28;20925;-88
2023/12/02 09:58:33;;;;;;;13.90;9.10;;;;;;;-1.68;100.00;150943.97;4976143;28;20457;-88
2023/12/02 10:01:07;;;;;;;15.77;9.53;;;;;;;-1.67;100.00;150946.56;4992024;28;20441;-88
2023/12/02 10:03:46;;;;;;;15.30;10.40;;;;;;;-1.63;100.00;150955.50;4993944;28;20461;-87
2023/12/02 10:06:28;;;;;;;14.97;9.47;;;;;;;-1.63;100.00;150955.50;4993991;28;20507;-88
2023/12/02 10:09:02;;;;;;;15.27;9.30;;;;;;;-1.58;100.00;150968.31;4989248;28;20477;-88
2023/12/02 10:11:36;;;;;;;17.27;10.83;;;;;;;-1.65;100.00;150951.69;4992824;28;20454;-88
2023/12/02 10:14:10;;;;;;;20.73;11.00;;;;;;;-1.69;100.00;150940.13;4993457;28;20461;-88
2023/12/02 10:16:39;;;;;;;15.00;9.50;;;;;;;-1.68;100.00;150943.97;4978666;28;20988;-88
2023/12/02 10:19:06;;;;;;;18.67;10.30;;;;;;;-1.71;100.00;150936.28;4999025;28;20450;-87
2023/12/02 10:21:33;;;;;;;15.80;10.20;;;;;;;-1.68;100.00;150943.97;4998032;28;20499;-88
2023/12/02 10:24:02;;;;;;;14.57;9.00;;;;;;;-1.69;100.00;150941.41;4995531;28;20823;-88
2023/12/02 10:26:30;;;;;;;15.50;10.50;;;;;;;-1.66;100.00;150949.09;4999503;28;20933;-87
2023/12/02 10:29:06;;;;;;;14.03;9.63;;;;;;;-1.66;100.00;150947.81;4997683;28;20484;-87
2023/12/02 10:31:36;;;;;;;14.87;9.50;;;;;;;-1.66;100.00;150949.09;4997436;28;20464;-88
2023/12/02 10:34:10;;;;;;;15.90;10.17;;;;;;;-1.60;100.00;150964.50;4998735;28;20452;-89
2023/12/02 10:36:37;;;;;;;15.50;9.20;;;;;;;-1.57;100.00;150972.19;4996313;28;20452;-88
2023/12/02 10:39:07;;;;;;;18.60;10.67;;;;;;;-1.61;100.00;150961.91;4990047;28;20523;-88
2023/12/02 10:41:37;;;;;;;19.70;11.10;;;;;;;-1.64;100.00;150954.22;4992692;28;20452;-88
2023/12/02 10:44:05;;;;;;;13.13;9.23;;;;;;;-1.55;100.00;150977.28;4998031;28;20467;-87
2023/12/02 10:46:33;;;;;;;16.10;9.90;;;;;;;-1.55;100.00;150976.00;4997942;28;20456;-88
2023/12/02 10:49:01;;;;;;;18.07;11.37;;;;;;;-1.58;100.00;150968.31;4997106;28;20483;-88
2023/12/02 10:51:29;;;;;;;13.53;10.07;;;;;;;-1.66;100.00;150949.09;4998498;28;20457;-88
2023/12/02 10:53:58;;;;;;;18.10;9.57;;;;;;;-1.69;100.00;150940.13;4994158;28;20657;-88
2023/12/02 10:56:27;;;;;;;14.30;9.03;;;;;;;-1.70;100.00;150938.88;4971400;28;20927;-88
2023/12/02 10:58:54;;;;;;;15.33;10.17;;;;;;;-1.68;100.00;150942.69;4988032;28;20461;-88
2023/12/02 11:01:27;;;;;;;14.80;9.97;;;;;;;-1.65;100.00;150950.41;4994716;28;20476;-88
2023/12/02 11:03:59;;;;;;;16.73;9.37;;;;;;;-1.65;100.00;150951.69;4997275;28;20814;-88
2023/12/02 11:06:33;;;;;;;17.90;10.00;;;;;;;-1.65;100.00;150950.41;4994026;28;20484;-88
2023/12/02 11:09:10;;;;;;;16.07;10.10;;;;;;;-1.67;100.00;150946.56;4995745;28;20887;-87